sensor_id;sensor_type;location;lat;lon;timestamp;temperature;humidity
37642;DHT22;23486;51.956;5.888;2023-02-03T00:02:12;8.30;99.90
37642;DHT22;23486;51.956;5.888;2023-02-03T00:04:37;8.30;99.90
37642;DHT22;23486;51.956;5.888;2023-02-03T00:07:03;8.30;99.90
37642;DHT22;23486;51.956;5.888;2023-02-03T00:09:29;8.30;99.90
37642;DHT22;23486;51.956;5.888;2023-02-03T00:11:57;8.30;99.90
37642;DHT22;23486;51.956;5.888;2023-02-03T00:14:23;8.30;99.90
37642;DHT22;23486;51.956;5.888;2023-02-03T00:16:49;8.30;99.90
37642;DHT22;23486;51.956;5.888;2023-02-03T00:19:14;8.30;99.90
37642;DHT22;23486;51.956;5.888;2023-02-03T00:21:40;8.30;99.90
37642;DHT22;23486;51.956;5.888;2023-02-03T00:24:05;8.30;99.90
37642;DHT22;23486;51.956;5.888;2023-02-03T00:26:31;8.40;99.90
37642;DHT22;23486;51.956;5.888;2023-02-03T00:28:58;8.40;99.90
37642;DHT22;23486;51.956;5.888;2023-02-03T00:31:24;8.40;99.90
37642;DHT22;23486;51.956;5.888;2023-02-03T00:33:56;8.40;99.90
37642;DHT22;23486;51.956;5.888;2023-02-03T00:36:23;8.40;99.90
37642;DHT22;23486;51.956;5.888;2023-02-03T00:38:49;8.40;99.90
37642;DHT22;23486;51.956;5.888;2023-02-03T00:41:15;8.40;99.90
37642;DHT22;23486;51.956;5.888;2023-02-03T00:43:41;8.40;99.90
37642;DHT22;23486;51.956;5.888;2023-02-03T00:46:07;8.40;99.90
37642;DHT22;23486;51.956;5.888;2023-02-03T00:48:32;8.40;99.90
37642;DHT22;23486;51.956;5.888;2023-02-03T00:50:58;8.40;99.90
37642;DHT22;23486;51.956;5.888;2023-02-03T00:53:23;8.50;99.90
37642;DHT22;23486;51.956;5.888;2023-02-03T00:55:49;8.50;99.90
37642;DHT22;23486;51.956;5.888;2023-02-03T00:58:16;8.50;99.90
37642;DHT22;23486;51.956;5.888;2023-02-03T01:00:41;8.50;99.90
37642;DHT22;23486;51.956;5.888;2023-02-03T01:03:07;8.50;99.90
37642;DHT22;23486;51.956;5.888;2023-02-03T01:05:33;8.50;99.90
37642;DHT22;23486;51.956;5.888;2023-02-03T01:08:00;8.50;99.90
37642;DHT22;23486;51.956;5.888;2023-02-03T01:10:26;8.50;99.90
37642;DHT22;23486;51.956;5.888;2023-02-03T01:12:51;8.50;99.90
37642;DHT22;23486;51.956;5.888;2023-02-03T01:15:17;8.50;99.90
37642;DHT22;23486;51.956;5.888;2023-02-03T01:17:42;8.50;99.90
37642;DHT22;23486;51.956;5.888;2023-02-03T01:20:09;8.50;99.90
37642;DHT22;23486;51.956;5.888;2023-02-03T01:22:37;8.50;99.90
37642;DHT22;23486;51.956;5.888;2023-02-03T01:25:05;8.50;99.90
37642;DHT22;23486;51.956;5.888;2023-02-03T01:27:32;8.50;99.90
37642;DHT22;23486;51.956;5.888;2023-02-03T01:29:58;8.50;99.90
37642;DHT22;23486;51.956;5.888;2023-02-03T01:32:23;8.50;99.90
37642;DHT22;23486;51.956;5.888;2023-02-03T01:34:49;8.60;99.90
37642;DHT22;23486;51.956;5.888;2023-02-03T01:37:15;8.60;99.90
37642;DHT22;23486;51.956;5.888;2023-02-03T01:39:43;8.60;99.90
37642;DHT22;23486;51.956;5.888;2023-02-03T01:42:13;8.60;99.90
37642;DHT22;23486;51.956;5.888;2023-02-03T01:44:48;8.60;99.90
37642;DHT22;23486;51.956;5.888;2023-02-03T01:52:41;8.60;99.90
37642;DHT22;23486;51.956;5.888;2023-02-03T01:55:09;8.60;99.90
37642;DHT22;23486;51.956;5.888;2023-02-03T01:57:40;8.60;99.90
37642;DHT22;23486;51.956;5.888;2023-02-03T02:00:07;8.60;99.90
37642;DHT22;23486;51.956;5.888;2023-02-03T02:02:34;8.60;99.90
37642;DHT22;23486;51.956;5.888;2023-02-03T02:05:31;8.60;99.90
37642;DHT22;23486;51.956;5.888;2023-02-03T02:07:59;8.60;99.90
37642;DHT22;23486;51.956;5.888;2023-02-03T02:10:25;8.60;99.90
37642;DHT22;23486;51.956;5.888;2023-02-03T02:12:52;8.60;99.90
37642;DHT22;23486;51.956;5.888;2023-02-03T02:15:20;8.60;99.90
37642;DHT22;23486;51.956;5.888;2023-02-03T02:29:53;8.60;99.90
37642;DHT22;23486;51.956;5.888;2023-02-03T02:32:40;8.60;99.90
37642;DHT22;23486;51.956;5.888;2023-02-03T02:35:25;8.60;99.90
37642;DHT22;23486;51.956;5.888;2023-02-03T02:38:01;8.60;99.90
37642;DHT22;23486;51.956;5.888;2023-02-03T02:40:36;8.60;99.90
37642;DHT22;23486;51.956;5.888;2023-02-03T02:43:10;8.60;99.90
37642;DHT22;23486;51.956;5.888;2023-02-03T02:45:58;8.60;99.90
37642;DHT22;23486;51.956;5.888;2023-02-03T02:48:34;8.60;99.90
37642;DHT22;23486;51.956;5.888;2023-02-03T02:51:02;8.60;99.90
37642;DHT22;23486;51.956;5.888;2023-02-03T02:53:33;8.60;99.90
37642;DHT22;23486;51.956;5.888;2023-02-03T02:56:02;8.60;99.90
37642;DHT22;23486;51.956;5.888;2023-02-03T02:58:35;8.60;99.90
37642;DHT22;23486;51.956;5.888;2023-02-03T03:01:02;8.60;99.90
37642;DHT22;23486;51.956;5.888;2023-02-03T03:03:28;8.60;99.90
37642;DHT22;23486;51.956;5.888;2023-02-03T03:05:56;8.60;99.90
37642;DHT22;23486;51.956;5.888;2023-02-03T03:08:38;8.60;99.90
37642;DHT22;23486;51.956;5.888;2023-02-03T03:11:06;8.60;99.90
37642;DHT22;23486;51.956;5.888;2023-02-03T03:13:35;8.60;99.90
37642;DHT22;23486;51.956;5.888;2023-02-03T03:16:08;8.70;99.90
37642;DHT22;23486;51.956;5.888;2023-02-03T03:18:40;8.70;99.90
37642;DHT22;23486;51.956;5.888;2023-02-03T03:21:10;8.70;99.90
37642;DHT22;23486;51.956;5.888;2023-02-03T03:23:40;8.70;99.90
37642;DHT22;23486;51.956;5.888;2023-02-03T03:26:13;8.70;99.90
37642;DHT22;23486;51.956;5.888;2023-02-03T03:28:47;8.70;99.90
37642;DHT22;23486;51.956;5.888;2023-02-03T03:31:15;8.70;99.90
37642;DHT22;23486;51.956;5.888;2023-02-03T03:33:41;8.70;99.90
37642;DHT22;23486;51.956;5.888;2023-02-03T03:39:06;8.70;99.90
37642;DHT22;23486;51.956;5.888;2023-02-03T03:42:03;8.70;99.90
37642;DHT22;23486;51.956;5.888;2023-02-03T03:44:36;8.70;99.90
37642;DHT22;23486;51.956;5.888;2023-02-03T03:47:13;8.70;99.90
37642;DHT22;23486;51.956;5.888;2023-02-03T03:49:41;8.70;99.90
37642;DHT22;23486;51.956;5.888;2023-02-03T03:52:09;8.70;99.90
37642;DHT22;23486;51.956;5.888;2023-02-03T03:54:37;8.70;99.90
37642;DHT22;23486;51.956;5.888;2023-02-03T03:57:12;8.70;99.90
37642;DHT22;23486;51.956;5.888;2023-02-03T03:59:41;8.70;99.90
37642;DHT22;23486;51.956;5.888;2023-02-03T04:02:09;8.70;99.90
37642;DHT22;23486;51.956;5.888;2023-02-03T04:04:38;8.80;99.90
37642;DHT22;23486;51.956;5.888;2023-02-03T04:07:03;8.70;99.90
37642;DHT22;23486;51.956;5.888;2023-02-03T04:09:29;8.70;99.90
37642;DHT22;23486;51.956;5.888;2023-02-03T04:11:55;8.80;99.90
37642;DHT22;23486;51.956;5.888;2023-02-03T04:14:30;8.80;99.90
37642;DHT22;23486;51.956;5.888;2023-02-03T04:16:57;8.80;99.90
37642;DHT22;23486;51.956;5.888;2023-02-03T04:19:22;8.80;99.90
37642;DHT22;23486;51.956;5.888;2023-02-03T04:21:48;8.80;99.90
37642;DHT22;23486;51.956;5.888;2023-02-03T04:24:14;8.80;99.90
37642;DHT22;23486;51.956;5.888;2023-02-03T04:26:39;8.80;99.90
37642;DHT22;23486;51.956;5.888;2023-02-03T04:29:05;8.90;99.90
37642;DHT22;23486;51.956;5.888;2023-02-03T04:31:33;8.90;99.90
37642;DHT22;23486;51.956;5.888;2023-02-03T04:34:00;8.90;99.90
37642;DHT22;23486;51.956;5.888;2023-02-03T04:36:26;8.90;99.90
37642;DHT22;23486;51.956;5.888;2023-02-03T04:38:52;8.90;99.90
37642;DHT22;23486;51.956;5.888;2023-02-03T04:41:17;8.90;99.90
37642;DHT22;23486;51.956;5.888;2023-02-03T04:43:43;8.90;99.90
37642;DHT22;23486;51.956;5.888;2023-02-03T04:46:08;8.90;99.90
37642;DHT22;23486;51.956;5.888;2023-02-03T04:48:35;8.90;99.90
37642;DHT22;23486;51.956;5.888;2023-02-03T04:51:05;8.90;99.90
37642;DHT22;23486;51.956;5.888;2023-02-03T04:53:31;8.90;99.90
37642;DHT22;23486;51.956;5.888;2023-02-03T04:55:57;9.00;99.90
37642;DHT22;23486;51.956;5.888;2023-02-03T04:58:23;9.00;99.90
37642;DHT22;23486;51.956;5.888;2023-02-03T05:00:50;9.00;99.90
37642;DHT22;23486;51.956;5.888;2023-02-03T05:03:16;9.00;99.90
37642;DHT22;23486;51.956;5.888;2023-02-03T05:05:41;9.00;99.90
37642;DHT22;23486;51.956;5.888;2023-02-03T05:08:07;9.00;99.90
37642;DHT22;23486;51.956;5.888;2023-02-03T05:10:32;9.00;99.90
37642;DHT22;23486;51.956;5.888;2023-02-03T05:12:58;9.00;99.90
37642;DHT22;23486;51.956;5.888;2023-02-03T05:15:23;9.00;99.90
37642;DHT22;23486;51.956;5.888;2023-02-03T05:17:53;9.00;99.90
37642;DHT22;23486;51.956;5.888;2023-02-03T05:20:21;9.10;99.90
37642;DHT22;23486;51.956;5.888;2023-02-03T05:22:47;9.10;99.90
37642;DHT22;23486;51.956;5.888;2023-02-03T05:25:13;9.10;99.90
37642;DHT22;23486;51.956;5.888;2023-02-03T05:27:39;9.10;99.90
37642;DHT22;23486;51.956;5.888;2023-02-03T05:30:06;9.10;99.90
37642;DHT22;23486;51.956;5.888;2023-02-03T05:32:32;9.10;99.90
37642;DHT22;23486;51.956;5.888;2023-02-03T05:34:58;9.10;99.90
37642;DHT22;23486;51.956;5.888;2023-02-03T05:37:23;9.10;99.90
37642;DHT22;23486;51.956;5.888;2023-02-03T05:39:49;9.00;99.90
37642;DHT22;23486;51.956;5.888;2023-02-03T05:42:14;9.10;99.90
37642;DHT22;23486;51.956;5.888;2023-02-03T05:44:40;9.10;99.90
37642;DHT22;23486;51.956;5.888;2023-02-03T05:47:06;9.00;99.90
37642;DHT22;23486;51.956;5.888;2023-02-03T05:49:32;9.10;99.90
37642;DHT22;23486;51.956;5.888;2023-02-03T05:51:57;9.10;99.90
37642;DHT22;23486;51.956;5.888;2023-02-03T05:54:23;9.10;99.90
37642;DHT22;23486;51.956;5.888;2023-02-03T05:56:48;9.10;99.90
37642;DHT22;23486;51.956;5.888;2023-02-03T05:59:14;9.10;99.90
37642;DHT22;23486;51.956;5.888;2023-02-03T06:01:40;9.10;99.90
37642;DHT22;23486;51.956;5.888;2023-02-03T06:04:06;9.10;99.90
37642;DHT22;23486;51.956;5.888;2023-02-03T06:06:31;9.10;99.90
37642;DHT22;23486;51.956;5.888;2023-02-03T06:09:06;9.10;99.90
37642;DHT22;23486;51.956;5.888;2023-02-03T06:11:32;9.10;99.90
37642;DHT22;23486;51.956;5.888;2023-02-03T06:13:58;9.10;99.90
37642;DHT22;23486;51.956;5.888;2023-02-03T06:16:25;9.10;99.90
37642;DHT22;23486;51.956;5.888;2023-02-03T06:18:52;9.10;99.90
37642;DHT22;23486;51.956;5.888;2023-02-03T06:21:18;9.10;99.90
37642;DHT22;23486;51.956;5.888;2023-02-03T06:23:44;9.10;99.90
37642;DHT22;23486;51.956;5.888;2023-02-03T06:26:10;9.10;99.90
37642;DHT22;23486;51.956;5.888;2023-02-03T06:28:38;9.10;99.90
37642;DHT22;23486;51.956;5.888;2023-02-03T06:31:07;9.10;99.90
37642;DHT22;23486;51.956;5.888;2023-02-03T06:33:32;9.10;99.90
37642;DHT22;23486;51.956;5.888;2023-02-03T06:35:58;9.10;99.90
37642;DHT22;23486;51.956;5.888;2023-02-03T06:38:27;9.10;99.90
37642;DHT22;23486;51.956;5.888;2023-02-03T06:40:53;9.00;99.90
37642;DHT22;23486;51.956;5.888;2023-02-03T06:43:18;9.10;99.90
37642;DHT22;23486;51.956;5.888;2023-02-03T06:45:45;9.00;99.90
37642;DHT22;23486;51.956;5.888;2023-02-03T06:48:14;9.10;99.90
37642;DHT22;23486;51.956;5.888;2023-02-03T06:50:41;9.10;99.90
37642;DHT22;23486;51.956;5.888;2023-02-03T06:53:06;9.10;99.90
37642;DHT22;23486;51.956;5.888;2023-02-03T06:55:32;9.10;99.90
37642;DHT22;23486;51.956;5.888;2023-02-03T06:57:58;9.10;99.90
37642;DHT22;23486;51.956;5.888;2023-02-03T07:00:23;9.10;99.90
37642;DHT22;23486;51.956;5.888;2023-02-03T07:02:56;9.10;99.90
37642;DHT22;23486;51.956;5.888;2023-02-03T07:05:22;9.00;99.90
37642;DHT22;23486;51.956;5.888;2023-02-03T07:07:48;9.00;99.90
37642;DHT22;23486;51.956;5.888;2023-02-03T07:10:17;9.00;99.90
37642;DHT22;23486;51.956;5.888;2023-02-03T07:12:45;9.00;99.90
37642;DHT22;23486;51.956;5.888;2023-02-03T07:15:11;9.00;99.90
37642;DHT22;23486;51.956;5.888;2023-02-03T07:17:37;9.00;99.90
37642;DHT22;23486;51.956;5.888;2023-02-03T07:20:04;9.00;99.90
37642;DHT22;23486;51.956;5.888;2023-02-03T07:22:30;9.00;99.90
37642;DHT22;23486;51.956;5.888;2023-02-03T07:24:56;9.00;99.90
37642;DHT22;23486;51.956;5.888;2023-02-03T07:27:21;9.00;99.90
37642;DHT22;23486;51.956;5.888;2023-02-03T07:29:47;9.00;99.90
37642;DHT22;23486;51.956;5.888;2023-02-03T07:32:12;9.00;99.90
37642;DHT22;23486;51.956;5.888;2023-02-03T07:34:38;9.00;99.90
37642;DHT22;23486;51.956;5.888;2023-02-03T07:37:04;9.00;99.90
37642;DHT22;23486;51.956;5.888;2023-02-03T07:39:29;9.00;99.90
37642;DHT22;23486;51.956;5.888;2023-02-03T07:41:55;9.00;99.90
37642;DHT22;23486;51.956;5.888;2023-02-03T07:44:20;9.00;99.90
37642;DHT22;23486;51.956;5.888;2023-02-03T07:46:46;9.00;99.90
37642;DHT22;23486;51.956;5.888;2023-02-03T07:49:12;9.00;99.90
37642;DHT22;23486;51.956;5.888;2023-02-03T07:51:41;9.00;99.90
37642;DHT22;23486;51.956;5.888;2023-02-03T07:54:06;9.00;99.90
37642;DHT22;23486;51.956;5.888;2023-02-03T07:56:32;9.00;99.90
37642;DHT22;23486;51.956;5.888;2023-02-03T07:58:58;9.00;99.90
37642;DHT22;23486;51.956;5.888;2023-02-03T08:01:24;9.00;99.90
37642;DHT22;23486;51.956;5.888;2023-02-03T08:03:50;9.00;99.90
37642;DHT22;23486;51.956;5.888;2023-02-03T08:06:15;9.00;99.90
37642;DHT22;23486;51.956;5.888;2023-02-03T08:08:41;9.00;99.90
37642;DHT22;23486;51.956;5.888;2023-02-03T08:11:12;9.10;99.90
37642;DHT22;23486;51.956;5.888;2023-02-03T08:13:38;9.10;99.90
37642;DHT22;23486;51.956;5.888;2023-02-03T08:16:04;9.10;99.90
37642;DHT22;23486;51.956;5.888;2023-02-03T08:18:30;9.10;99.90
37642;DHT22;23486;51.956;5.888;2023-02-03T08:20:55;9.10;99.90
37642;DHT22;23486;51.956;5.888;2023-02-03T08:23:21;9.10;99.90
37642;DHT22;23486;51.956;5.888;2023-02-03T08:25:51;9.10;99.90
37642;DHT22;23486;51.956;5.888;2023-02-03T08:28:16;9.10;99.90
37642;DHT22;23486;51.956;5.888;2023-02-03T08:30:42;9.10;99.90
37642;DHT22;23486;51.956;5.888;2023-02-03T08:33:10;9.10;99.90
37642;DHT22;23486;51.956;5.888;2023-02-03T08:35:36;9.10;99.90
37642;DHT22;23486;51.956;5.888;2023-02-03T08:38:02;9.20;99.90
37642;DHT22;23486;51.956;5.888;2023-02-03T08:40:28;9.20;99.90
37642;DHT22;23486;51.956;5.888;2023-02-03T08:42:53;9.10;99.90
37642;DHT22;23486;51.956;5.888;2023-02-03T08:45:20;9.20;99.90
37642;DHT22;23486;51.956;5.888;2023-02-03T08:47:46;9.20;99.90
37642;DHT22;23486;51.956;5.888;2023-02-03T08:50:11;9.20;99.90
37642;DHT22;23486;51.956;5.888;2023-02-03T08:52:38;9.20;99.90
37642;DHT22;23486;51.956;5.888;2023-02-03T08:55:04;9.20;99.90
37642;DHT22;23486;51.956;5.888;2023-02-03T08:57:33;9.30;99.90
37642;DHT22;23486;51.956;5.888;2023-02-03T09:00:03;9.30;99.90
37642;DHT22;23486;51.956;5.888;2023-02-03T09:02:29;9.30;99.90
37642;DHT22;23486;51.956;5.888;2023-02-03T09:04:55;9.30;99.90
37642;DHT22;23486;51.956;5.888;2023-02-03T09:07:21;9.40;99.90
37642;DHT22;23486;51.956;5.888;2023-02-03T09:09:47;9.40;99.90
37642;DHT22;23486;51.956;5.888;2023-02-03T09:12:12;9.40;99.90
37642;DHT22;23486;51.956;5.888;2023-02-03T09:14:38;9.40;99.90
37642;DHT22;23486;51.956;5.888;2023-02-03T09:17:05;9.50;99.90
37642;DHT22;23486;51.956;5.888;2023-02-03T09:19:32;9.50;99.90
37642;DHT22;23486;51.956;5.888;2023-02-03T09:21:58;9.50;99.90
37642;DHT22;23486;51.956;5.888;2023-02-03T09:24:24;9.60;99.90
37642;DHT22;23486;51.956;5.888;2023-02-03T09:26:49;9.50;99.90
37642;DHT22;23486;51.956;5.888;2023-02-03T09:29:15;9.60;99.90
37642;DHT22;23486;51.956;5.888;2023-02-03T09:31:41;9.60;99.90
37642;DHT22;23486;51.956;5.888;2023-02-03T09:34:08;9.60;99.90
37642;DHT22;23486;51.956;5.888;2023-02-03T09:36:34;9.70;99.90
37642;DHT22;23486;51.956;5.888;2023-02-03T09:38:59;9.70;99.90
37642;DHT22;23486;51.956;5.888;2023-02-03T09:44:08;9.70;99.90
37642;DHT22;23486;51.956;5.888;2023-02-03T09:46:42;9.80;99.90
37642;DHT22;23486;51.956;5.888;2023-02-03T09:49:12;9.80;99.90
37642;DHT22;23486;51.956;5.888;2023-02-03T09:51:49;9.80;99.90
37642;DHT22;23486;51.956;5.888;2023-02-03T09:57:23;9.80;99.90
37642;DHT22;23486;51.956;5.888;2023-02-03T09:59:50;9.80;99.90
37642;DHT22;23486;51.956;5.888;2023-02-03T10:10:39;9.90;99.90
37642;DHT22;23486;51.956;5.888;2023-02-03T10:13:14;9.90;99.90
37642;DHT22;23486;51.956;5.888;2023-02-03T10:18:40;9.90;99.90
37642;DHT22;23486;51.956;5.888;2023-02-03T10:21:16;9.90;99.90
37642;DHT22;23486;51.956;5.888;2023-02-03T10:23:46;9.90;99.90
37642;DHT22;23486;51.956;5.888;2023-02-03T10:26:22;9.90;99.90
37642;DHT22;23486;51.956;5.888;2023-02-03T10:28:55;9.90;99.90
37642;DHT22;23486;51.956;5.888;2023-02-03T10:31:23;10.00;99.90
37642;DHT22;23486;51.956;5.888;2023-02-03T10:34:11;10.00;99.90
37642;DHT22;23486;51.956;5.888;2023-02-03T10:37:27;10.00;99.90
37642;DHT22;23486;51.956;5.888;2023-02-03T10:39:46;10.00;99.90
37642;DHT22;23486;51.956;5.888;2023-02-03T10:42:12;10.00;99.90
37642;DHT22;23486;51.956;5.888;2023-02-03T10:44:47;10.00;99.90
37642;DHT22;23486;51.956;5.888;2023-02-03T10:47:33;10.00;99.90
37642;DHT22;23486;51.956;5.888;2023-02-03T10:50:06;10.10;99.90
37642;DHT22;23486;51.956;5.888;2023-02-03T10:52:35;10.10;99.90
37642;DHT22;23486;51.956;5.888;2023-02-03T10:55:28;10.10;99.90
37642;DHT22;23486;51.956;5.888;2023-02-03T10:57:55;10.10;99.90
37642;DHT22;23486;51.956;5.888;2023-02-03T11:00:22;10.10;99.90
37642;DHT22;23486;51.956;5.888;2023-02-03T11:03:04;10.10;99.90
37642;DHT22;23486;51.956;5.888;2023-02-03T11:05:30;10.10;99.90
37642;DHT22;23486;51.956;5.888;2023-02-03T11:07:55;10.10;99.90
37642;DHT22;23486;51.956;5.888;2023-02-03T11:13:30;10.20;99.90
37642;DHT22;23486;51.956;5.888;2023-02-03T11:16:16;10.20;99.90
37642;DHT22;23486;51.956;5.888;2023-02-03T11:27:14;10.30;99.90
37642;DHT22;23486;51.956;5.888;2023-02-03T11:29:43;10.40;99.90
37642;DHT22;23486;51.956;5.888;2023-02-03T11:32:26;10.40;99.90
37642;DHT22;23486;51.956;5.888;2023-02-03T11:37:34;10.50;99.90
37642;DHT22;23486;51.956;5.888;2023-02-03T11:42:37;10.60;99.90
37642;DHT22;23486;51.956;5.888;2023-02-03T11:50:46;10.70;99.90
37642;DHT22;23486;51.956;5.888;2023-02-03T11:56:27;10.70;99.90
37642;DHT22;23486;51.956;5.888;2023-02-03T12:01:57;10.80;99.90
37642;DHT22;23486;51.956;5.888;2023-02-03T12:12:58;10.90;99.90
37642;DHT22;23486;51.956;5.888;2023-02-03T12:21:45;10.90;99.90
37642;DHT22;23486;51.956;5.888;2023-02-03T12:24:36;10.90;99.90
37642;DHT22;23486;51.956;5.888;2023-02-03T12:30:10;10.90;99.90
37642;DHT22;23486;51.956;5.888;2023-02-03T12:32:54;10.90;99.90
37642;DHT22;23486;51.956;5.888;2023-02-03T12:35:41;10.80;99.90
37642;DHT22;23486;51.956;5.888;2023-02-03T12:38:39;10.60;99.90
37642;DHT22;23486;51.956;5.888;2023-02-03T12:41:27;10.40;99.90
37642;DHT22;23486;51.956;5.888;2023-02-03T12:44:00;10.40;99.90
37642;DHT22;23486;51.956;5.888;2023-02-03T12:46:44;10.30;99.90
37642;DHT22;23486;51.956;5.888;2023-02-03T12:49:33;10.20;99.90
37642;DHT22;23486;51.956;5.888;2023-02-03T12:52:22;10.10;99.90
37642;DHT22;23486;51.956;5.888;2023-02-03T12:54:58;9.80;99.90
37642;DHT22;23486;51.956;5.888;2023-02-03T12:57:57;9.70;99.90
37642;DHT22;23486;51.956;5.888;2023-02-03T13:00:44;9.60;99.90
37642;DHT22;23486;51.956;5.888;2023-02-03T13:03:26;9.50;99.90
37642;DHT22;23486;51.956;5.888;2023-02-03T13:08:41;9.10;99.90
37642;DHT22;23486;51.956;5.888;2023-02-03T13:13:47;8.90;99.90
37642;DHT22;23486;51.956;5.888;2023-02-03T13:16:15;8.90;99.90
37642;DHT22;23486;51.956;5.888;2023-02-03T13:18:53;8.90;99.90
37642;DHT22;23486;51.956;5.888;2023-02-03T13:21:20;8.90;99.90
37642;DHT22;23486;51.956;5.888;2023-02-03T13:23:48;9.00;99.90
37642;DHT22;23486;51.956;5.888;2023-02-03T13:29:43;9.10;99.90
37642;DHT22;23486;51.956;5.888;2023-02-03T13:32:41;9.10;99.90
37642;DHT22;23486;51.956;5.888;2023-02-03T13:43:12;9.20;99.90
37642;DHT22;23486;51.956;5.888;2023-02-03T13:45:42;9.30;99.90
37642;DHT22;23486;51.956;5.888;2023-02-03T13:48:15;9.30;99.90
37642;DHT22;23486;51.956;5.888;2023-02-03T13:50:43;9.30;99.90
37642;DHT22;23486;51.956;5.888;2023-02-03T13:53:20;9.40;99.90
37642;DHT22;23486;51.956;5.888;2023-02-03T13:55:56;9.30;99.90
37642;DHT22;23486;51.956;5.888;2023-02-03T13:58:26;9.30;99.90
37642;DHT22;23486;51.956;5.888;2023-02-03T14:05:45;9.40;99.90
37642;DHT22;23486;51.956;5.888;2023-02-03T14:16:46;9.50;99.90
37642;DHT22;23486;51.956;5.888;2023-02-03T14:22:00;9.50;99.90
37642;DHT22;23486;51.956;5.888;2023-02-03T14:24:41;9.50;99.90
37642;DHT22;23486;51.956;5.888;2023-02-03T14:27:29;9.50;99.90
37642;DHT22;23486;51.956;5.888;2023-02-03T14:32:58;9.50;99.90
37642;DHT22;23486;51.956;5.888;2023-02-03T14:35:36;9.50;99.90
37642;DHT22;23486;51.956;5.888;2023-02-03T14:38:08;9.50;99.90
37642;DHT22;23486;51.956;5.888;2023-02-03T14:40:53;9.50;99.90
37642;DHT22;23486;51.956;5.888;2023-02-03T14:43:40;9.50;99.90
37642;DHT22;23486;51.956;5.888;2023-02-03T14:49:25;9.50;99.90
37642;DHT22;23486;51.956;5.888;2023-02-03T14:55:10;9.50;99.90
37642;DHT22;23486;51.956;5.888;2023-02-03T14:57:55;9.50;99.90
37642;DHT22;23486;51.956;5.888;2023-02-03T15:00:30;9.50;99.90
37642;DHT22;23486;51.956;5.888;2023-02-03T15:08:32;9.40;99.90
37642;DHT22;23486;51.956;5.888;2023-02-03T15:13:49;9.40;99.90
37642;DHT22;23486;51.956;5.888;2023-02-03T15:16:20;9.30;99.90
37642;DHT22;23486;51.956;5.888;2023-02-03T15:18:59;9.30;99.90
37642;DHT22;23486;51.956;5.888;2023-02-03T15:21:27;9.30;99.90
37642;DHT22;23486;51.956;5.888;2023-02-03T15:23:53;9.30;99.90
37642;DHT22;23486;51.956;5.888;2023-02-03T15:26:24;9.30;99.90
37642;DHT22;23486;51.956;5.888;2023-02-03T15:29:00;9.30;99.90
37642;DHT22;23486;51.956;5.888;2023-02-03T15:31:42;9.30;99.90
37642;DHT22;23486;51.956;5.888;2023-02-03T15:34:26;9.30;99.90
37642;DHT22;23486;51.956;5.888;2023-02-03T15:36:56;9.30;99.90
37642;DHT22;23486;51.956;5.888;2023-02-03T15:40:00;9.30;99.90
37642;DHT22;23486;51.956;5.888;2023-02-03T15:43:07;9.30;99.90
37642;DHT22;23486;51.956;5.888;2023-02-03T15:45:38;9.30;99.90
37642;DHT22;23486;51.956;5.888;2023-02-03T15:48:16;9.30;99.90
37642;DHT22;23486;51.956;5.888;2023-02-03T15:51:18;9.20;99.90
37642;DHT22;23486;51.956;5.888;2023-02-03T15:54:06;9.20;99.90
37642;DHT22;23486;51.956;5.888;2023-02-03T15:59:20;9.20;99.90
37642;DHT22;23486;51.956;5.888;2023-02-03T16:01:47;9.20;99.90
37642;DHT22;23486;51.956;5.888;2023-02-03T16:04:12;9.20;99.90
37642;DHT22;23486;51.956;5.888;2023-02-03T16:06:39;9.20;99.90
37642;DHT22;23486;51.956;5.888;2023-02-03T16:09:29;9.20;99.90
37642;DHT22;23486;51.956;5.888;2023-02-03T16:12:30;9.20;99.90
37642;DHT22;23486;51.956;5.888;2023-02-03T16:14:58;9.20;99.90
37642;DHT22;23486;51.956;5.888;2023-02-03T16:17:32;9.10;99.90
37642;DHT22;23486;51.956;5.888;2023-02-03T16:22:44;9.10;99.90
37642;DHT22;23486;51.956;5.888;2023-02-03T16:25:29;9.10;99.90
37642;DHT22;23486;51.956;5.888;2023-02-03T16:27:59;9.10;99.90
37642;DHT22;23486;51.956;5.888;2023-02-03T16:30:56;9.10;99.90
37642;DHT22;23486;51.956;5.888;2023-02-03T16:33:49;9.10;99.90
37642;DHT22;23486;51.956;5.888;2023-02-03T16:36:39;9.10;99.90
37642;DHT22;23486;51.956;5.888;2023-02-03T16:39:25;9.10;99.90
37642;DHT22;23486;51.956;5.888;2023-02-03T16:42:15;9.10;99.90
37642;DHT22;23486;51.956;5.888;2023-02-03T16:45:00;9.00;99.90
37642;DHT22;23486;51.956;5.888;2023-02-03T16:47:45;9.00;99.90
37642;DHT22;23486;51.956;5.888;2023-02-03T16:50:29;9.00;99.90
37642;DHT22;23486;51.956;5.888;2023-02-03T16:53:22;9.00;99.90
37642;DHT22;23486;51.956;5.888;2023-02-03T16:55:56;8.90;99.90
37642;DHT22;23486;51.956;5.888;2023-02-03T16:58:25;8.90;99.90
37642;DHT22;23486;51.956;5.888;2023-02-03T17:00:56;8.90;99.90
37642;DHT22;23486;51.956;5.888;2023-02-03T17:03:24;8.90;99.90
37642;DHT22;23486;51.956;5.888;2023-02-03T17:05:53;8.90;99.90
37642;DHT22;23486;51.956;5.888;2023-02-03T17:08:21;8.90;99.90
37642;DHT22;23486;51.956;5.888;2023-02-03T17:10:50;8.80;99.90
37642;DHT22;23486;51.956;5.888;2023-02-03T17:13:17;8.80;99.90
37642;DHT22;23486;51.956;5.888;2023-02-03T17:15:45;8.80;99.90
37642;DHT22;23486;51.956;5.888;2023-02-03T17:18:12;8.80;99.90
37642;DHT22;23486;51.956;5.888;2023-02-03T17:20:42;8.70;99.90
37642;DHT22;23486;51.956;5.888;2023-02-03T17:23:09;8.70;99.90
37642;DHT22;23486;51.956;5.888;2023-02-03T17:25:35;8.70;99.90
37642;DHT22;23486;51.956;5.888;2023-02-03T17:28:02;8.60;99.90
37642;DHT22;23486;51.956;5.888;2023-02-03T17:30:28;8.60;99.90
37642;DHT22;23486;51.956;5.888;2023-02-03T17:32:58;8.60;99.90
37642;DHT22;23486;51.956;5.888;2023-02-03T17:35:24;8.60;99.90
37642;DHT22;23486;51.956;5.888;2023-02-03T17:37:56;8.60;99.90
37642;DHT22;23486;51.956;5.888;2023-02-03T17:40:22;8.60;99.90
37642;DHT22;23486;51.956;5.888;2023-02-03T17:43:05;8.60;99.90
37642;DHT22;23486;51.956;5.888;2023-02-03T17:45:30;8.60;99.90
37642;DHT22;23486;51.956;5.888;2023-02-03T17:47:56;8.60;99.90
37642;DHT22;23486;51.956;5.888;2023-02-03T17:50:24;8.50;99.90
37642;DHT22;23486;51.956;5.888;2023-02-03T17:52:50;8.50;99.90
37642;DHT22;23486;51.956;5.888;2023-02-03T17:55:15;8.50;99.90
37642;DHT22;23486;51.956;5.888;2023-02-03T17:57:41;8.50;99.90
37642;DHT22;23486;51.956;5.888;2023-02-03T18:00:07;8.50;99.90
37642;DHT22;23486;51.956;5.888;2023-02-03T18:02:36;8.50;99.90
37642;DHT22;23486;51.956;5.888;2023-02-03T18:05:02;8.50;99.90
37642;DHT22;23486;51.956;5.888;2023-02-03T18:07:28;8.40;99.90
37642;DHT22;23486;51.956;5.888;2023-02-03T18:09:53;8.40;99.90
37642;DHT22;23486;51.956;5.888;2023-02-03T18:12:19;8.40;99.90
37642;DHT22;23486;51.956;5.888;2023-02-03T18:14:45;8.30;99.90
37642;DHT22;23486;51.956;5.888;2023-02-03T18:17:10;8.30;99.90
37642;DHT22;23486;51.956;5.888;2023-02-03T18:19:36;8.30;99.90
37642;DHT22;23486;51.956;5.888;2023-02-03T18:22:01;8.30;99.90
37642;DHT22;23486;51.956;5.888;2023-02-03T18:24:27;8.30;99.90
37642;DHT22;23486;51.956;5.888;2023-02-03T18:26:57;8.30;99.90